createdAt,value
2019-02-28T00:01:20.157Z,27.40
2019-02-28T00:03:49.019Z,21.17
2019-02-28T00:06:17.807Z,22.53
2019-02-28T00:08:46.726Z,17.80
2019-02-28T00:11:15.558Z,12.43
2019-02-28T00:13:44.403Z,16.03
2019-02-28T00:16:13.281Z,16.20
2019-02-28T00:18:42.174Z,16.57
2019-02-28T00:21:10.972Z,13.80
2019-02-28T00:23:39.873Z,18.87
2019-02-28T00:26:11.280Z,16.10
2019-02-28T00:28:39.327Z,15.20
2019-02-28T00:31:08.274Z,11.20
2019-02-28T00:33:37.043Z,18.23
2019-02-28T00:36:05.837Z,12.00
2019-02-28T00:38:34.680Z,18.33
2019-02-28T00:41:03.531Z,14.70
2019-02-28T00:43:32.314Z,16.30
2019-02-28T00:46:01.169Z,12.10
2019-02-28T00:48:29.944Z,12.17
2019-02-28T00:50:59.282Z,20.70
2019-02-28T00:53:28.170Z,10.17
2019-02-28T00:55:56.940Z,17.20
2019-02-28T00:58:28.639Z,11.10
2019-02-28T01:00:56.501Z,10.00
2019-02-28T01:03:27.303Z,15.13
2019-02-28T01:05:55.915Z,11.00
2019-02-28T01:08:24.839Z,11.27
2019-02-28T01:10:53.776Z,10.50
2019-02-28T01:13:27.237Z,10.40
2019-02-28T01:15:53.216Z,11.47
2019-02-28T01:18:22.048Z,13.10
2019-02-28T01:20:52.508Z,11.60
2019-02-28T01:23:21.280Z,9.77
2019-02-28T01:25:50.174Z,13.57
2019-02-28T01:28:19.104Z,12.00
2019-02-28T01:30:47.875Z,11.83
2019-02-28T01:33:16.756Z,13.20
2019-02-28T01:35:45.706Z,9.90
2019-02-28T01:38:14.476Z,10.33
2019-02-28T01:40:43.314Z,12.80
2019-02-28T01:43:12.148Z,9.70
2019-02-28T01:45:43.499Z,15.17
2019-02-28T01:48:11.814Z,9.77
2019-02-28T01:50:40.627Z,9.50
2019-02-28T01:53:09.378Z,10.60
2019-02-28T01:55:38.135Z,7.63
2019-02-28T01:58:06.931Z,11.00
2019-02-28T02:00:35.814Z,9.70
2019-02-28T02:03:04.654Z,10.00
2019-02-28T02:05:33.408Z,13.10
2019-02-28T02:08:06.481Z,8.30
2019-02-28T02:10:32.703Z,13.00
2019-02-28T02:13:03.257Z,14.30
2019-02-28T02:15:31.986Z,10.67
2019-02-28T02:18:00.814Z,12.90
2019-02-28T02:20:29.577Z,12.03
2019-02-28T02:22:58.430Z,9.27
2019-02-28T02:25:27.370Z,13.30
2019-02-28T02:28:06.328Z,8.83
2019-02-28T02:30:35.173Z,8.70
2019-02-28T02:33:03.999Z,11.07
2019-02-28T02:35:32.779Z,12.33
2019-02-28T02:38:03.573Z,9.87
2019-02-28T02:40:33.871Z,13.60
2019-02-28T02:43:02.680Z,15.10
2019-02-28T02:45:31.533Z,11.63
2019-02-28T02:48:00.395Z,10.53
2019-02-28T02:50:34.390Z,13.50
2019-02-28T02:53:04.963Z,12.50
2019-02-28T02:55:30.403Z,16.87
2019-02-28T02:57:59.175Z,11.40
2019-02-28T03:00:27.978Z,19.53
2019-02-28T03:02:56.810Z,13.37
2019-02-28T03:05:25.663Z,14.87
2019-02-28T03:07:59.552Z,13.53
2019-02-28T03:10:24.923Z,13.30
2019-02-28T03:12:53.808Z,10.13
2019-02-28T03:15:26.994Z,15.20
2019-02-28T03:17:53.156Z,14.23
2019-02-28T03:20:24.748Z,13.70
2019-02-28T03:22:53.512Z,15.20
2019-02-28T03:25:27.687Z,17.80
2019-02-28T03:27:56.454Z,15.00
2019-02-28T03:30:31.033Z,11.37
2019-02-28T03:32:53.765Z,18.87
2019-02-28T03:35:22.558Z,14.47
2019-02-28T03:37:51.821Z,15.97
2019-02-28T03:40:20.574Z,11.70
2019-02-28T03:42:49.447Z,16.30
2019-02-28T03:45:18.442Z,16.17
2019-02-28T03:47:47.287Z,13.83
2019-02-28T03:50:16.168Z,14.20
2019-02-28T03:52:45.189Z,16.20
2019-02-28T03:55:14.306Z,17.30
2019-02-28T03:57:43.396Z,16.80
2019-02-28T04:00:14.748Z,16.57
2019-02-28T04:02:43.576Z,15.13
2019-02-28T04:05:12.515Z,14.37
2019-02-28T04:07:41.319Z,17.50
2019-02-28T04:10:10.465Z,21.20
2019-02-28T04:12:44.858Z,19.60
2019-02-28T04:15:11.437Z,15.00
2019-02-28T04:17:40.315Z,16.73
2019-02-28T04:20:09.329Z,21.07
2019-02-28T04:22:38.120Z,20.63
2019-02-28T04:25:07.249Z,19.23
2019-02-28T04:27:40.527Z,25.50
2019-02-28T04:30:08.275Z,18.57
2019-02-28T04:32:37.318Z,18.80
2019-02-28T04:35:06.257Z,22.13
2019-02-28T04:37:35.012Z,17.80
2019-02-28T04:40:03.975Z,19.73
2019-02-28T04:42:33.211Z,21.40
2019-02-28T04:45:01.964Z,16.43
2019-02-28T04:47:30.773Z,20.50
2019-02-28T04:49:59.546Z,22.33
2019-02-28T04:52:28.359Z,23.10
2019-02-28T04:54:59.391Z,22.63
2019-02-28T04:57:27.619Z,24.40
2019-02-28T04:59:56.416Z,20.73
2019-02-28T05:02:25.289Z,22.40
2019-02-28T05:04:54.097Z,18.77
2019-02-28T05:07:22.969Z,23.77
2019-02-28T05:09:51.824Z,30.33
2019-02-28T05:12:20.663Z,20.80
2019-02-28T05:14:49.438Z,23.83
2019-02-28T05:17:19.380Z,26.53
2019-02-28T05:19:48.934Z,27.57
2019-02-28T05:22:17.709Z,19.80
2019-02-28T05:24:46.604Z,28.27
2019-02-28T05:27:16.118Z,21.10
2019-02-28T05:29:44.894Z,34.23
2019-02-28T05:32:13.835Z,33.70
2019-02-28T05:34:42.630Z,29.27
2019-02-28T05:37:12.498Z,29.67
2019-02-28T05:39:43.692Z,27.93
2019-02-28T05:42:13.227Z,25.93
2019-02-28T05:44:42.089Z,32.60
2019-02-28T05:47:12.106Z,27.83
2019-02-28T05:49:42.003Z,29.80
2019-02-28T05:52:10.848Z,29.67
2019-02-28T05:54:42.095Z,27.67
2019-02-28T05:57:13.918Z,29.07
2019-02-28T05:59:46.015Z,29.57
2019-02-28T06:02:15.030Z,30.27
2019-02-28T06:04:43.945Z,27.87
2019-02-28T06:07:12.879Z,30.50
2019-02-28T06:09:41.751Z,28.53
2019-02-28T06:12:10.824Z,37.83
2019-02-28T06:14:39.709Z,33.30
2019-02-28T06:17:08.729Z,33.63
2019-02-28T06:19:40.183Z,30.80
2019-02-28T06:22:10.101Z,34.10
2019-02-28T06:24:39.036Z,34.67
2019-02-28T06:27:08.011Z,31.07
2019-02-28T06:29:37.579Z,33.33
2019-02-28T06:32:06.419Z,34.07
2019-02-28T06:34:35.367Z,44.10
2019-02-28T06:37:04.529Z,36.50
2019-02-28T06:39:33.438Z,34.70
2019-02-28T06:42:02.789Z,32.47
2019-02-28T06:44:31.637Z,35.40
2019-02-28T06:47:00.513Z,43.17
2019-02-28T06:49:29.341Z,37.57
2019-02-28T06:51:58.428Z,38.27
2019-02-28T06:54:27.225Z,37.83
2019-02-28T06:56:56.361Z,35.07
2019-02-28T06:59:25.326Z,35.63
2019-02-28T07:01:57.482Z,45.30
2019-02-28T07:04:24.693Z,37.67
2019-02-28T07:06:53.695Z,34.33
2019-02-28T07:09:22.552Z,42.80
2019-02-28T07:11:54.676Z,34.67
2019-02-28T07:14:21.960Z,37.67
2019-02-28T07:16:50.865Z,43.17
2019-02-28T07:19:19.697Z,34.80
2019-02-28T07:21:48.618Z,49.93
2019-02-28T07:24:17.479Z,42.30
2019-02-28T07:26:48.190Z,38.87
2019-02-28T07:29:16.885Z,67.03
2019-02-28T07:31:45.875Z,46.63
2019-02-28T07:34:19.300Z,47.23
2019-02-28T07:36:45.868Z,43.97
2019-02-28T07:39:14.745Z,35.23
2019-02-28T07:41:43.557Z,53.00
2019-02-28T07:44:12.558Z,50.70
2019-02-28T07:46:42.417Z,42.90
2019-02-28T07:49:12.068Z,58.63
2019-02-28T07:51:40.942Z,44.07
2019-02-28T07:54:12.677Z,43.30
2019-02-28T07:56:43.297Z,48.50
2019-02-28T07:59:10.875Z,42.53
2019-02-28T08:01:39.685Z,49.43
2019-02-28T08:04:08.625Z,43.63
2019-02-28T08:06:39.342Z,44.63
2019-02-28T08:09:24.616Z,53.80
2019-02-28T08:11:55.611Z,55.23
2019-02-28T08:14:24.110Z,52.30
2019-02-28T08:16:53.138Z,52.83
2019-02-28T08:19:22.917Z,57.33
2019-02-28T08:21:52.563Z,45.17
2019-02-28T08:24:21.461Z,59.07
2019-02-28T08:26:50.704Z,58.97
2019-02-28T08:29:20.797Z,55.97
2019-02-28T08:31:49.608Z,57.73
2019-02-28T08:34:20.627Z,63.03
2019-02-28T08:36:49.116Z,53.67
2019-02-28T08:39:18.271Z,58.33
2019-02-28T08:41:47.179Z,57.23
2019-02-28T08:44:16.140Z,56.20
2019-02-28T08:46:46.557Z,58.00
2019-02-28T08:49:15.635Z,58.73
2019-02-28T08:51:44.474Z,54.70
2019-02-28T08:54:16.215Z,64.07
2019-02-28T08:56:49.536Z,56.60
2019-02-28T08:59:20.429Z,53.93
2019-02-28T09:01:47.481Z,60.77
2019-02-28T09:04:16.333Z,59.83
2019-02-28T09:06:45.197Z,66.63
2019-02-28T09:09:14.732Z,55.60
2019-02-28T09:11:44.148Z,68.07
2019-02-28T09:14:14.784Z,61.50
2019-02-28T09:16:43.783Z,56.67
2019-02-28T09:19:12.582Z,78.80
2019-02-28T09:21:41.376Z,60.37
2019-02-28T09:24:12.694Z,66.60
2019-02-28T09:26:40.937Z,66.03
2019-02-28T09:29:09.861Z,62.40
2019-02-28T09:31:39.729Z,66.73
2019-02-28T09:34:09.272Z,68.07
2019-02-28T09:36:38.180Z,69.47
2019-02-28T09:39:08.009Z,63.93
2019-02-28T09:41:40.189Z,71.43
2019-02-28T09:44:07.484Z,59.57
2019-02-28T09:46:36.356Z,58.40
2019-02-28T09:49:05.751Z,68.93
2019-02-28T09:51:34.703Z,59.70
2019-02-28T09:54:03.557Z,70.73
2019-02-28T09:56:32.441Z,66.00
2019-02-28T09:59:03.282Z,69.87
2019-02-28T10:01:31.823Z,55.87
2019-02-28T10:04:00.571Z,62.07
2019-02-28T10:06:29.428Z,58.67
2019-02-28T10:08:58.235Z,53.03
2019-02-28T10:11:31.405Z,75.77
2019-02-28T10:13:57.577Z,58.70
2019-02-28T10:16:26.387Z,56.13
2019-02-28T10:18:55.279Z,70.27
2019-02-28T10:21:25.355Z,49.07
2019-02-28T10:23:56.998Z,62.97
2019-02-28T10:26:24.726Z,61.57
2019-02-28T10:28:53.579Z,66.37
2019-02-28T10:31:35.245Z,63.97
2019-02-28T10:33:53.204Z,55.73
2019-02-28T10:36:22.098Z,50.20
2019-02-28T10:38:50.912Z,49.93
2019-02-28T10:41:19.877Z,58.17
2019-02-28T10:43:51.916Z,59.60
2019-02-28T10:46:20.255Z,58.73
2019-02-28T10:48:51.015Z,61.67
2019-02-28T10:51:20.217Z,52.43
2019-02-28T10:53:48.985Z,57.33
2019-02-28T10:56:17.888Z,64.23
2019-02-28T10:58:47.166Z,53.93
2019-02-28T11:01:18.137Z,55.20
2019-02-28T11:03:47.496Z,61.57
2019-02-28T11:06:16.385Z,51.97
2019-02-28T11:08:47.487Z,61.13
2019-02-28T11:11:16.086Z,59.03
2019-02-28T11:13:45.325Z,58.57
2019-02-28T11:16:14.283Z,65.33
2019-02-28T11:18:43.517Z,60.20
2019-02-28T11:21:13.640Z,61.10
2019-02-28T11:23:42.614Z,58.97
2019-02-28T11:26:11.603Z,72.83
2019-02-28T11:28:40.440Z,64.87
2019-02-28T11:31:11.474Z,60.50
2019-02-28T11:33:40.472Z,66.03
2019-02-28T11:36:09.421Z,56.07
2019-02-28T11:38:38.439Z,52.50
2019-02-28T11:41:07.399Z,66.20
2019-02-28T11:43:38.420Z,59.37
2019-02-28T11:46:08.460Z,53.47
2019-02-28T11:48:37.498Z,55.53
2019-02-28T11:51:06.601Z,69.80
2019-02-28T11:53:39.358Z,73.37
2019-02-28T11:56:06.153Z,61.27
2019-02-28T11:58:35.031Z,62.07
2019-02-28T12:01:04.284Z,58.97
2019-02-28T12:03:35.481Z,55.20
2019-02-28T12:06:03.743Z,59.57
2019-02-28T12:08:32.829Z,57.80
2019-02-28T12:11:01.922Z,60.20
2019-02-28T12:13:31.732Z,54.83
2019-02-28T12:16:00.864Z,61.00
2019-02-28T12:18:29.797Z,57.17
2019-02-28T12:21:01.764Z,57.80
2019-02-28T12:23:29.483Z,55.20
2019-02-28T12:25:58.449Z,53.03
2019-02-28T12:28:27.447Z,52.70
2019-02-28T12:30:57.322Z,58.53
2019-02-28T12:33:26.908Z,51.07
2019-02-28T12:35:55.967Z,52.43
2019-02-28T12:38:28.277Z,52.10
2019-02-28T12:40:55.642Z,54.63
2019-02-28T12:43:24.531Z,56.33
2019-02-28T12:45:53.646Z,68.83
2019-02-28T12:48:22.568Z,62.13
2019-02-28T12:50:51.405Z,52.33
2019-02-28T12:53:24.254Z,52.80
2019-02-28T12:55:50.771Z,53.13
2019-02-28T12:58:19.701Z,50.67
2019-02-28T13:00:48.565Z,51.93
2019-02-28T13:03:20.242Z,47.47
2019-02-28T13:05:49.529Z,54.43
2019-02-28T13:08:18.554Z,58.40
2019-02-28T13:10:50.536Z,57.70
2019-02-28T13:13:21.673Z,57.33
2019-02-28T13:15:49.955Z,63.73
2019-02-28T13:18:18.956Z,58.50
2019-02-28T13:20:47.824Z,56.97
2019-02-28T13:23:17.237Z,62.60
2019-02-28T13:25:46.226Z,56.57
2019-02-28T13:28:17.873Z,64.00
2019-02-28T13:30:50.124Z,61.70
2019-02-28T13:33:17.494Z,58.00
2019-02-28T13:35:47.666Z,48.93
2019-02-28T13:38:19.128Z,46.20
2019-02-28T13:40:47.488Z,47.27
2019-02-28T13:43:20.929Z,55.93
2019-02-28T13:45:50.970Z,50.97
2019-02-28T13:48:25.678Z,66.47
2019-02-28T13:50:47.924Z,52.53
2019-02-28T13:53:18.023Z,53.70
2019-02-28T13:55:47.596Z,58.63
2019-02-28T13:58:17.601Z,58.80
2019-02-28T14:00:47.228Z,53.53
2019-02-28T14:03:17.076Z,59.40
2019-02-28T14:05:46.251Z,59.40
2019-02-28T14:08:15.236Z,57.90
2019-02-28T14:10:44.220Z,50.27
2019-02-28T14:13:13.046Z,52.73
2019-02-28T14:15:42.983Z,53.10
2019-02-28T14:18:14.967Z,54.40
2019-02-28T14:20:43.852Z,62.17
2019-02-28T14:23:12.867Z,52.53
2019-02-28T14:25:41.796Z,66.23
2019-02-28T14:28:10.657Z,67.67
2019-02-28T14:30:39.512Z,62.13
2019-02-28T14:33:08.673Z,54.00
2019-02-28T14:35:38.588Z,55.53
2019-02-28T14:38:08.001Z,64.80
2019-02-28T14:40:36.824Z,53.27
2019-02-28T14:43:05.669Z,75.93
2019-02-28T14:45:34.778Z,51.70
2019-02-28T14:48:04.281Z,53.60
2019-02-28T14:50:34.074Z,55.47
2019-02-28T14:53:03.006Z,50.90
2019-02-28T14:55:32.571Z,55.40
2019-02-28T14:58:02.466Z,62.30
2019-02-28T15:00:31.436Z,62.90
2019-02-28T15:03:02.842Z,52.63
2019-02-28T15:05:31.176Z,63.47
2019-02-28T15:08:00.549Z,54.20
2019-02-28T15:10:29.714Z,61.30
2019-02-28T15:12:59.656Z,60.37
2019-02-28T15:15:28.578Z,51.10
2019-02-28T15:17:57.490Z,54.97
2019-02-28T15:20:31.598Z,66.07
2019-02-28T15:22:59.311Z,55.70
2019-02-28T15:25:27.840Z,56.53
2019-02-28T15:27:57.431Z,54.90
2019-02-28T15:30:30.549Z,58.07
2019-02-28T15:32:58.874Z,50.83
2019-02-28T15:35:27.756Z,50.10
2019-02-28T15:37:57.281Z,60.87
2019-02-28T15:40:28.248Z,55.57
2019-02-28T15:42:57.242Z,52.03
2019-02-28T15:45:26.918Z,61.07
2019-02-28T15:47:59.136Z,48.93
2019-02-28T15:50:27.246Z,55.97
2019-02-28T15:52:56.282Z,55.57
2019-02-28T15:55:25.462Z,60.20
2019-02-28T15:57:54.367Z,58.83
2019-02-28T16:00:25.208Z,63.83
2019-02-28T16:02:54.298Z,68.20
2019-02-28T16:05:23.970Z,75.50
2019-02-28T16:07:53.216Z,59.63
2019-02-28T16:10:23.888Z,49.97
2019-02-28T16:12:52.830Z,54.97
2019-02-28T16:15:21.665Z,54.20
2019-02-28T16:17:53.631Z,59.30
2019-02-28T16:20:24.982Z,58.73
2019-02-28T16:22:54.325Z,51.67
2019-02-28T16:25:25.683Z,53.97
2019-02-28T16:27:55.273Z,62.60
2019-02-28T16:30:24.289Z,77.47
2019-02-28T16:32:53.211Z,64.80
2019-02-28T16:35:25.030Z,62.33
2019-02-28T16:37:53.880Z,66.87
2019-02-28T16:40:26.296Z,72.57
2019-02-28T16:42:54.468Z,69.97
2019-02-28T16:45:29.923Z,73.57
2019-02-28T16:47:59.492Z,74.13
2019-02-28T16:50:29.572Z,75.73
2019-02-28T16:53:02.511Z,71.03
2019-02-28T16:55:31.862Z,81.90
2019-02-28T16:58:00.912Z,72.10
2019-02-28T17:00:43.245Z,67.50
2019-02-28T17:03:12.830Z,65.23
2019-02-28T17:05:41.876Z,67.30
2019-02-28T17:08:10.821Z,72.53
2019-02-28T17:10:39.991Z,72.20
2019-02-28T17:13:27.912Z,73.27
2019-02-28T17:16:19.524Z,61.60
2019-02-28T17:18:48.810Z,66.13
2019-02-28T17:21:18.176Z,67.97
2019-02-28T17:23:47.224Z,62.33
2019-02-28T17:26:16.350Z,76.27
2019-02-28T17:28:56.252Z,70.77
2019-02-28T17:31:44.540Z,70.43
2019-02-28T17:34:17.933Z,62.97
2019-02-28T17:36:48.476Z,64.67
2019-02-28T17:39:20.308Z,73.03
2019-02-28T17:41:49.388Z,65.07
2019-02-28T17:45:02.516Z,65.10
2019-02-28T17:48:09.636Z,57.77
2019-02-28T17:50:50.900Z,65.83
2019-02-28T17:53:51.152Z,67.27
2019-02-28T17:56:40.851Z,67.90
2019-02-28T17:59:41.976Z,73.80
2019-02-28T18:02:29.902Z,67.13
2019-02-28T18:05:30.349Z,62.73
2019-02-28T18:08:16.040Z,66.10
2019-02-28T18:11:30.982Z,56.13
2019-02-28T18:14:31.219Z,67.77
2019-02-28T18:17:47.664Z,62.20
2019-02-28T18:20:32.182Z,71.60
2019-02-28T18:23:30.787Z,71.07
2019-02-28T18:26:25.678Z,68.63
2019-02-28T18:29:19.400Z,65.13
2019-02-28T18:31:48.274Z,73.80
2019-02-28T18:34:21.422Z,63.07
2019-02-28T18:36:50.512Z,65.57
2019-02-28T18:39:19.332Z,64.50
2019-02-28T18:41:50.639Z,51.10
2019-02-28T18:44:19.206Z,69.10
2019-02-28T18:46:48.937Z,62.50
2019-02-28T18:49:18.480Z,74.60
2019-02-28T18:51:48.172Z,68.53
2019-02-28T18:54:19.665Z,70.43
2019-02-28T18:56:48.815Z,73.80
2019-02-28T18:59:18.349Z,66.43
2019-02-28T19:01:49.228Z,77.30
2019-02-28T19:04:18.424Z,74.07
2019-02-28T19:06:47.483Z,70.63
2019-02-28T19:09:21.274Z,69.20
2019-02-28T19:11:50.372Z,67.30
2019-02-28T19:14:19.324Z,70.63
2019-02-28T19:16:49.773Z,64.20
2019-02-28T19:19:18.716Z,72.40
2019-02-28T19:21:49.147Z,76.17
2019-02-28T19:24:18.338Z,76.23
2019-02-28T19:26:47.287Z,70.13
2019-02-28T19:29:16.462Z,70.77
2019-02-28T19:31:45.336Z,73.50
2019-02-28T19:34:14.341Z,69.13
2019-02-28T19:36:43.477Z,69.53
2019-02-28T19:39:12.819Z,89.97
2019-02-28T19:41:43.965Z,71.37
2019-02-28T19:44:14.767Z,71.93
2019-02-28T19:46:43.795Z,61.23
2019-02-28T19:49:12.791Z,63.23
2019-02-28T19:51:43.802Z,73.03
2019-02-28T19:54:12.853Z,73.13
2019-02-28T19:56:42.838Z,70.23
2019-02-28T19:59:11.813Z,65.33
2019-02-28T20:01:40.861Z,67.40
2019-02-28T20:04:09.835Z,76.83
2019-02-28T20:06:39.126Z,69.97
2019-02-28T20:09:12.835Z,76.77
2019-02-28T20:11:41.981Z,71.70
2019-02-28T20:14:11.372Z,91.20
2019-02-28T20:16:40.403Z,80.63
2019-02-28T20:19:09.503Z,79.73
2019-02-28T20:21:43.758Z,89.13
2019-02-28T20:24:12.746Z,72.57
2019-02-28T20:26:42.012Z,98.93
2019-02-28T20:29:14.844Z,85.90
2019-02-28T20:31:43.987Z,87.73
2019-02-28T20:34:13.075Z,83.17
2019-02-28T20:36:42.164Z,72.67
2019-02-28T20:39:13.463Z,86.93
2019-02-28T20:41:45.443Z,76.30
2019-02-28T20:44:16.071Z,86.17
2019-02-28T20:46:45.096Z,79.13
2019-02-28T20:49:15.562Z,72.13
2019-02-28T20:51:44.461Z,83.50
2019-02-28T20:54:13.938Z,89.93
2019-02-28T20:56:47.855Z,70.57
2019-02-28T20:59:23.134Z,77.13
2019-02-28T21:01:53.228Z,84.27
2019-02-28T21:04:33.135Z,71.37
2019-02-28T21:07:02.278Z,88.83
2019-02-28T21:09:31.265Z,87.10
2019-02-28T21:12:05.698Z,77.27
2019-02-28T21:14:34.625Z,74.77
2019-02-28T21:17:04.697Z,78.13
2019-02-28T21:19:33.659Z,77.47
2019-02-28T21:22:03.599Z,69.93
2019-02-28T21:24:33.153Z,71.17
2019-02-28T21:27:03.321Z,70.37
2019-02-28T21:29:36.160Z,78.20
2019-02-28T21:32:05.167Z,68.97
2019-02-28T21:34:34.397Z,73.90
2019-02-28T21:37:03.780Z,70.80
2019-02-28T21:39:32.625Z,62.60
2019-02-28T21:42:01.534Z,72.23
2019-02-28T21:44:30.389Z,60.40
2019-02-28T21:46:59.743Z,63.80
2019-02-28T21:49:28.819Z,78.30
2019-02-28T21:51:58.241Z,58.13
2019-02-28T21:54:27.151Z,59.57
2019-02-28T21:56:56.303Z,67.27
2019-02-28T21:59:25.319Z,60.90
2019-02-28T22:01:54.519Z,59.13
2019-02-28T22:04:23.615Z,61.53
2019-02-28T22:06:52.387Z,61.07
2019-02-28T22:09:23.987Z,58.93
2019-02-28T22:11:55.243Z,71.87
2019-02-28T22:14:24.067Z,58.80
2019-02-28T22:16:53.019Z,63.90
2019-02-28T22:19:23.643Z,50.43
2019-02-28T22:21:52.573Z,53.87
2019-02-28T22:24:21.403Z,57.67
2019-02-28T22:26:51.877Z,61.80
2019-02-28T22:29:20.872Z,50.70
2019-02-28T22:31:57.130Z,61.90
2019-02-28T22:34:34.377Z,50.30
2019-02-28T22:37:05.506Z,68.07
2019-02-28T22:39:34.840Z,66.07
2019-02-28T22:42:06.462Z,60.53
2019-02-28T22:44:35.362Z,52.60
2019-02-28T22:47:04.470Z,53.37
2019-02-28T22:49:33.794Z,62.13
2019-02-28T22:52:03.167Z,59.53
2019-02-28T22:54:32.010Z,53.93
2019-02-28T22:57:01.039Z,54.30
2019-02-28T22:59:30.209Z,42.43
2019-02-28T23:02:00.855Z,51.00
2019-02-28T23:04:29.705Z,57.03
2019-02-28T23:06:58.550Z,56.87
2019-02-28T23:09:27.877Z,48.93
2019-02-28T23:11:56.871Z,49.30
2019-02-28T23:14:25.967Z,54.50
2019-02-28T23:16:56.920Z,64.83
2019-02-28T23:19:25.805Z,56.80
2019-02-28T23:21:54.665Z,54.33
2019-02-28T23:24:23.523Z,47.67
2019-02-28T23:27:12.250Z,62.93
2019-02-28T23:29:44.203Z,54.90
2019-02-28T23:32:44.299Z,46.50
2019-02-28T23:35:17.367Z,52.43
2019-02-28T23:37:49.236Z,44.77
2019-02-28T23:40:18.161Z,48.60
2019-02-28T23:42:46.977Z,60.60
2019-02-28T23:45:15.847Z,44.27
2019-02-28T23:47:44.653Z,56.50
2019-02-28T23:50:13.857Z,45.63
2019-02-28T23:52:42.601Z,47.03
2019-02-28T23:55:11.760Z,53.47
2019-02-28T23:57:40.628Z,59.40
